sensor_id;sensor_type;location;lat;lon;timestamp;P1;durP1;ratioP1;P2;durP2;ratioP2
8663;SDS011;4369;47.842;13.096;2024-03-22T00:02:09;15.23;;;13.67;;
8663;SDS011;4369;47.842;13.096;2024-03-22T00:04:36;20.63;;;14.80;;
8663;SDS011;4369;47.842;13.096;2024-03-22T00:07:02;17.97;;;14.50;;
8663;SDS011;4369;47.842;13.096;2024-03-22T00:09:30;17.90;;;14.37;;
8663;SDS011;4369;47.842;13.096;2024-03-22T00:11:56;17.33;;;14.30;;
8663;SDS011;4369;47.842;13.096;2024-03-22T00:14:23;16.23;;;14.13;;
8663;SDS011;4369;47.842;13.096;2024-03-22T00:16:49;17.23;;;14.37;;
8663;SDS011;4369;47.842;13.096;2024-03-22T00:19:18;17.33;;;13.83;;
8663;SDS011;4369;47.842;13.096;2024-03-22T00:21:44;18.07;;;14.13;;
8663;SDS011;4369;47.842;13.096;2024-03-22T00:24:10;16.67;;;14.27;;
8663;SDS011;4369;47.842;13.096;2024-03-22T00:26:36;16.63;;;13.47;;
8663;SDS011;4369;47.842;13.096;2024-03-22T00:29:04;16.53;;;13.87;;
8663;SDS011;4369;47.842;13.096;2024-03-22T00:31:30;15.40;;;13.13;;
8663;SDS011;4369;47.842;13.096;2024-03-22T00:33:57;15.70;;;14.00;;
8663;SDS011;4369;47.842;13.096;2024-03-22T00:36:24;16.77;;;14.03;;
8663;SDS011;4369;47.842;13.096;2024-03-22T00:38:51;15.97;;;13.57;;
8663;SDS011;4369;47.842;13.096;2024-03-22T00:41:17;15.03;;;13.43;;
8663;SDS011;4369;47.842;13.096;2024-03-22T00:43:44;15.30;;;13.47;;
8663;SDS011;4369;47.842;13.096;2024-03-22T00:46:10;17.73;;;13.93;;
8663;SDS011;4369;47.842;13.096;2024-03-22T00:48:37;17.57;;;13.60;;
8663;SDS011;4369;47.842;13.096;2024-03-22T00:51:03;18.47;;;14.40;;
8663;SDS011;4369;47.842;13.096;2024-03-22T00:53:32;17.13;;;14.47;;
8663;SDS011;4369;47.842;13.096;2024-03-22T00:55:57;15.50;;;13.13;;
8663;SDS011;4369;47.842;13.096;2024-03-22T00:58:26;17.80;;;14.37;;
8663;SDS011;4369;47.842;13.096;2024-03-22T01:00:52;16.50;;;13.37;;
8663;SDS011;4369;47.842;13.096;2024-03-22T01:03:19;16.00;;;13.50;;
8663;SDS011;4369;47.842;13.096;2024-03-22T01:05:46;17.30;;;13.77;;
8663;SDS011;4369;47.842;13.096;2024-03-22T01:08:16;15.87;;;13.33;;
8663;SDS011;4369;47.842;13.096;2024-03-22T01:10:43;16.63;;;12.83;;
8663;SDS011;4369;47.842;13.096;2024-03-22T01:13:10;16.13;;;14.03;;
8663;SDS011;4369;47.842;13.096;2024-03-22T01:15:36;16.87;;;13.53;;
8663;SDS011;4369;47.842;13.096;2024-03-22T01:18:03;16.70;;;13.43;;
8663;SDS011;4369;47.842;13.096;2024-03-22T01:20:29;14.37;;;12.20;;
8663;SDS011;4369;47.842;13.096;2024-03-22T01:22:56;17.33;;;13.47;;
8663;SDS011;4369;47.842;13.096;2024-03-22T01:25:24;17.50;;;13.97;;
8663;SDS011;4369;47.842;13.096;2024-03-22T01:27:52;16.90;;;13.10;;
8663;SDS011;4369;47.842;13.096;2024-03-22T01:30:19;16.47;;;13.40;;
8663;SDS011;4369;47.842;13.096;2024-03-22T01:32:45;15.30;;;12.80;;
8663;SDS011;4369;47.842;13.096;2024-03-22T01:35:12;13.77;;;11.87;;
8663;SDS011;4369;47.842;13.096;2024-03-22T01:37:38;14.07;;;12.60;;
8663;SDS011;4369;47.842;13.096;2024-03-22T01:40:05;16.27;;;13.30;;
8663;SDS011;4369;47.842;13.096;2024-03-22T01:42:33;13.63;;;12.23;;
8663;SDS011;4369;47.842;13.096;2024-03-22T01:45:01;15.43;;;12.93;;
8663;SDS011;4369;47.842;13.096;2024-03-22T01:47:28;16.63;;;13.17;;
8663;SDS011;4369;47.842;13.096;2024-03-22T01:49:55;14.13;;;11.87;;
8663;SDS011;4369;47.842;13.096;2024-03-22T01:52:22;16.03;;;13.27;;
8663;SDS011;4369;47.842;13.096;2024-03-22T01:54:49;16.50;;;13.07;;
8663;SDS011;4369;47.842;13.096;2024-03-22T01:57:15;17.17;;;13.97;;
8663;SDS011;4369;47.842;13.096;2024-03-22T01:59:42;16.10;;;13.40;;
8663;SDS011;4369;47.842;13.096;2024-03-22T02:02:10;15.27;;;11.73;;
8663;SDS011;4369;47.842;13.096;2024-03-22T02:04:37;16.40;;;13.10;;
8663;SDS011;4369;47.842;13.096;2024-03-22T02:07:03;15.53;;;13.53;;
8663;SDS011;4369;47.842;13.096;2024-03-22T02:09:31;16.50;;;12.67;;
8663;SDS011;4369;47.842;13.096;2024-03-22T02:11:57;16.43;;;12.47;;
8663;SDS011;4369;47.842;13.096;2024-03-22T02:14:24;15.33;;;12.90;;
8663;SDS011;4369;47.842;13.096;2024-03-22T02:16:50;16.63;;;13.23;;
8663;SDS011;4369;47.842;13.096;2024-03-22T02:19:18;14.27;;;12.10;;
8663;SDS011;4369;47.842;13.096;2024-03-22T02:21:44;14.13;;;11.83;;
8663;SDS011;4369;47.842;13.096;2024-03-22T02:24:13;16.00;;;12.57;;
8663;SDS011;4369;47.842;13.096;2024-03-22T02:26:39;13.47;;;11.43;;
8663;SDS011;4369;47.842;13.096;2024-03-22T02:29:06;17.87;;;13.40;;
8663;SDS011;4369;47.842;13.096;2024-03-22T02:31:32;14.57;;;12.20;;
8663;SDS011;4369;47.842;13.096;2024-03-22T02:33:58;15.33;;;12.07;;
8663;SDS011;4369;47.842;13.096;2024-03-22T02:36:26;15.40;;;13.00;;
8663;SDS011;4369;47.842;13.096;2024-03-22T02:38:53;15.30;;;12.50;;
8663;SDS011;4369;47.842;13.096;2024-03-22T02:41:21;17.90;;;13.67;;
8663;SDS011;4369;47.842;13.096;2024-03-22T02:43:48;17.77;;;13.47;;
8663;SDS011;4369;47.842;13.096;2024-03-22T02:46:14;15.47;;;12.73;;
8663;SDS011;4369;47.842;13.096;2024-03-22T02:48:41;16.77;;;12.43;;
8663;SDS011;4369;47.842;13.096;2024-03-22T02:51:07;15.20;;;12.00;;
8663;SDS011;4369;47.842;13.096;2024-03-22T02:53:33;13.67;;;11.83;;
8663;SDS011;4369;47.842;13.096;2024-03-22T02:55:59;16.70;;;12.53;;
8663;SDS011;4369;47.842;13.096;2024-03-22T02:58:28;13.70;;;11.83;;
8663;SDS011;4369;47.842;13.096;2024-03-22T03:00:54;13.43;;;11.43;;
8663;SDS011;4369;47.842;13.096;2024-03-22T03:03:21;15.83;;;12.30;;
8663;SDS011;4369;47.842;13.096;2024-03-22T03:05:47;15.60;;;12.97;;
8663;SDS011;4369;47.842;13.096;2024-03-22T03:08:14;16.80;;;12.97;;
8663;SDS011;4369;47.842;13.096;2024-03-22T03:10:40;17.97;;;13.80;;
8663;SDS011;4369;47.842;13.096;2024-03-22T03:13:07;17.57;;;13.30;;
8663;SDS011;4369;47.842;13.096;2024-03-22T03:15:34;14.87;;;12.40;;
8663;SDS011;4369;47.842;13.096;2024-03-22T03:18:01;17.13;;;12.87;;
8663;SDS011;4369;47.842;13.096;2024-03-22T03:20:27;16.33;;;12.30;;
8663;SDS011;4369;47.842;13.096;2024-03-22T03:22:54;15.67;;;12.20;;
8663;SDS011;4369;47.842;13.096;2024-03-22T03:25:20;14.87;;;12.73;;
8663;SDS011;4369;47.842;13.096;2024-03-22T03:27:47;15.67;;;12.90;;
8663;SDS011;4369;47.842;13.096;2024-03-22T03:30:13;16.30;;;12.63;;
8663;SDS011;4369;47.842;13.096;2024-03-22T03:32:41;16.83;;;13.00;;
8663;SDS011;4369;47.842;13.096;2024-03-22T03:35:08;15.57;;;12.90;;
8663;SDS011;4369;47.842;13.096;2024-03-22T03:37:35;14.17;;;11.43;;
8663;SDS011;4369;47.842;13.096;2024-03-22T03:40:01;15.03;;;11.90;;
8663;SDS011;4369;47.842;13.096;2024-03-22T03:42:28;14.67;;;11.57;;
8663;SDS011;4369;47.842;13.096;2024-03-22T03:44:54;16.97;;;12.37;;
8663;SDS011;4369;47.842;13.096;2024-03-22T03:47:21;18.10;;;13.50;;
8663;SDS011;4369;47.842;13.096;2024-03-22T03:49:48;14.37;;;12.30;;
8663;SDS011;4369;47.842;13.096;2024-03-22T03:52:17;15.17;;;12.63;;
8663;SDS011;4369;47.842;13.096;2024-03-22T03:54:43;14.73;;;11.57;;
8663;SDS011;4369;47.842;13.096;2024-03-22T03:57:10;15.73;;;11.87;;
8663;SDS011;4369;47.842;13.096;2024-03-22T03:59:36;14.83;;;11.67;;
8663;SDS011;4369;47.842;13.096;2024-03-22T04:02:03;15.10;;;10.97;;
8663;SDS011;4369;47.842;13.096;2024-03-22T04:04:29;14.40;;;11.50;;
8663;SDS011;4369;47.842;13.096;2024-03-22T04:06:57;13.10;;;11.50;;
8663;SDS011;4369;47.842;13.096;2024-03-22T04:09:23;14.23;;;11.20;;
8663;SDS011;4369;47.842;13.096;2024-03-22T04:11:50;15.33;;;12.17;;
8663;SDS011;4369;47.842;13.096;2024-03-22T04:14:16;17.70;;;13.87;;
8663;SDS011;4369;47.842;13.096;2024-03-22T04:16:43;15.33;;;12.53;;
8663;SDS011;4369;47.842;13.096;2024-03-22T04:19:09;17.87;;;12.20;;
8663;SDS011;4369;47.842;13.096;2024-03-22T04:21:36;14.17;;;11.83;;
8663;SDS011;4369;47.842;13.096;2024-03-22T04:24:03;15.60;;;11.40;;
8663;SDS011;4369;47.842;13.096;2024-03-22T04:26:31;14.77;;;12.27;;
8663;SDS011;4369;47.842;13.096;2024-03-22T04:28:57;14.67;;;11.93;;
8663;SDS011;4369;47.842;13.096;2024-03-22T04:31:24;15.40;;;11.27;;
8663;SDS011;4369;47.842;13.096;2024-03-22T04:33:50;15.90;;;12.37;;
8663;SDS011;4369;47.842;13.096;2024-03-22T04:36:17;17.40;;;12.80;;
8663;SDS011;4369;47.842;13.096;2024-03-22T04:38:43;15.73;;;12.93;;
8663;SDS011;4369;47.842;13.096;2024-03-22T04:41:11;18.40;;;12.97;;
8663;SDS011;4369;47.842;13.096;2024-03-22T04:43:38;19.83;;;13.53;;
8663;SDS011;4369;47.842;13.096;2024-03-22T04:46:04;18.70;;;12.87;;
8663;SDS011;4369;47.842;13.096;2024-03-22T04:48:32;19.80;;;13.47;;
8663;SDS011;4369;47.842;13.096;2024-03-22T04:50:58;17.67;;;12.30;;
8663;SDS011;4369;47.842;13.096;2024-03-22T04:53:25;14.53;;;11.97;;
8663;SDS011;4369;47.842;13.096;2024-03-22T04:55:51;16.27;;;12.10;;
8663;SDS011;4369;47.842;13.096;2024-03-22T04:58:20;13.93;;;10.93;;
8663;SDS011;4369;47.842;13.096;2024-03-22T05:00:47;14.10;;;10.80;;
8663;SDS011;4369;47.842;13.096;2024-03-22T05:03:14;14.73;;;11.43;;
8663;SDS011;4369;47.842;13.096;2024-03-22T05:05:41;13.37;;;11.60;;
8663;SDS011;4369;47.842;13.096;2024-03-22T05:08:09;16.00;;;11.17;;
8663;SDS011;4369;47.842;13.096;2024-03-22T05:10:35;13.63;;;10.67;;
8663;SDS011;4369;47.842;13.096;2024-03-22T05:13:02;13.10;;;10.10;;
8663;SDS011;4369;47.842;13.096;2024-03-22T05:15:29;16.07;;;10.67;;
8663;SDS011;4369;47.842;13.096;2024-03-22T05:17:57;13.57;;;10.73;;
8663;SDS011;4369;47.842;13.096;2024-03-22T05:20:23;12.23;;;10.43;;
8663;SDS011;4369;47.842;13.096;2024-03-22T05:22:50;15.93;;;10.83;;
8663;SDS011;4369;47.842;13.096;2024-03-22T05:25:17;16.43;;;12.37;;
8663;SDS011;4369;47.842;13.096;2024-03-22T05:27:44;16.70;;;12.40;;
8663;SDS011;4369;47.842;13.096;2024-03-22T05:30:11;15.47;;;11.97;;
8663;SDS011;4369;47.842;13.096;2024-03-22T05:32:40;16.70;;;12.83;;
8663;SDS011;4369;47.842;13.096;2024-03-22T05:35:07;15.80;;;11.67;;
8663;SDS011;4369;47.842;13.096;2024-03-22T05:37:34;15.07;;;11.87;;
8663;SDS011;4369;47.842;13.096;2024-03-22T05:40:00;18.47;;;12.83;;
8663;SDS011;4369;47.842;13.096;2024-03-22T05:42:27;17.63;;;12.47;;
8663;SDS011;4369;47.842;13.096;2024-03-22T05:44:54;18.43;;;12.00;;
8663;SDS011;4369;47.842;13.096;2024-03-22T05:47:22;14.73;;;12.47;;
8663;SDS011;4369;47.842;13.096;2024-03-22T05:49:49;13.87;;;11.37;;
8663;SDS011;4369;47.842;13.096;2024-03-22T05:52:16;15.37;;;12.07;;
8663;SDS011;4369;47.842;13.096;2024-03-22T05:54:42;18.03;;;13.53;;
8663;SDS011;4369;47.842;13.096;2024-03-22T05:57:09;19.10;;;12.87;;
8663;SDS011;4369;47.842;13.096;2024-03-22T05:59:36;16.13;;;12.40;;
8663;SDS011;4369;47.842;13.096;2024-03-22T06:02:04;16.10;;;12.27;;
8663;SDS011;4369;47.842;13.096;2024-03-22T06:04:30;16.20;;;12.37;;
8663;SDS011;4369;47.842;13.096;2024-03-22T06:06:59;15.97;;;11.90;;
8663;SDS011;4369;47.842;13.096;2024-03-22T06:09:25;15.30;;;11.73;;
8663;SDS011;4369;47.842;13.096;2024-03-22T06:12:02;16.67;;;11.97;;
8663;SDS011;4369;47.842;13.096;2024-03-22T06:14:29;16.20;;;12.47;;
8663;SDS011;4369;47.842;13.096;2024-03-22T06:16:56;15.43;;;12.37;;
8663;SDS011;4369;47.842;13.096;2024-03-22T06:19:22;17.50;;;12.67;;
8663;SDS011;4369;47.842;13.096;2024-03-22T06:21:51;17.80;;;13.00;;
8663;SDS011;4369;47.842;13.096;2024-03-22T06:24:18;14.23;;;12.73;;
8663;SDS011;4369;47.842;13.096;2024-03-22T06:26:45;17.17;;;13.03;;
8663;SDS011;4369;47.842;13.096;2024-03-22T06:29:11;16.87;;;13.87;;
8663;SDS011;4369;47.842;13.096;2024-03-22T06:31:39;18.10;;;13.40;;
8663;SDS011;4369;47.842;13.096;2024-03-22T06:34:05;17.80;;;13.80;;
8663;SDS011;4369;47.842;13.096;2024-03-22T06:36:32;19.47;;;13.77;;
8663;SDS011;4369;47.842;13.096;2024-03-22T06:38:58;19.53;;;14.93;;
8663;SDS011;4369;47.842;13.096;2024-03-22T06:41:27;18.33;;;13.97;;
8663;SDS011;4369;47.842;13.096;2024-03-22T06:43:53;18.77;;;14.43;;
8663;SDS011;4369;47.842;13.096;2024-03-22T06:46:20;18.23;;;13.93;;
8663;SDS011;4369;47.842;13.096;2024-03-22T06:48:46;17.30;;;13.97;;
8663;SDS011;4369;47.842;13.096;2024-03-22T06:51:13;20.10;;;14.07;;
8663;SDS011;4369;47.842;13.096;2024-03-22T06:53:39;18.87;;;14.37;;
8663;SDS011;4369;47.842;13.096;2024-03-22T06:56:06;19.57;;;14.70;;
8663;SDS011;4369;47.842;13.096;2024-03-22T06:58:35;18.00;;;13.47;;
8663;SDS011;4369;47.842;13.096;2024-03-22T07:01:02;18.00;;;14.67;;
8663;SDS011;4369;47.842;13.096;2024-03-22T07:03:29;17.47;;;14.47;;
8663;SDS011;4369;47.842;13.096;2024-03-22T07:05:56;17.40;;;14.00;;
8663;SDS011;4369;47.842;13.096;2024-03-22T07:08:22;22.00;;;15.33;;
8663;SDS011;4369;47.842;13.096;2024-03-22T07:10:50;20.60;;;15.23;;
8663;SDS011;4369;47.842;13.096;2024-03-22T07:13:16;17.80;;;14.23;;
8663;SDS011;4369;47.842;13.096;2024-03-22T07:15:45;19.37;;;14.83;;
8663;SDS011;4369;47.842;13.096;2024-03-22T07:18:12;19.00;;;15.13;;
8663;SDS011;4369;47.842;13.096;2024-03-22T07:20:39;23.97;;;16.23;;
8663;SDS011;4369;47.842;13.096;2024-03-22T07:23:06;16.73;;;14.10;;
8663;SDS011;4369;47.842;13.096;2024-03-22T07:25:33;18.63;;;13.83;;
8663;SDS011;4369;47.842;13.096;2024-03-22T07:27:59;16.13;;;13.70;;
8663;SDS011;4369;47.842;13.096;2024-03-22T07:30:26;17.90;;;14.03;;
8663;SDS011;4369;47.842;13.096;2024-03-22T07:32:53;17.17;;;13.33;;
8663;SDS011;4369;47.842;13.096;2024-03-22T07:35:20;15.20;;;12.90;;
8663;SDS011;4369;47.842;13.096;2024-03-22T07:37:46;16.57;;;12.97;;
8663;SDS011;4369;47.842;13.096;2024-03-22T07:40:13;15.37;;;12.23;;
8663;SDS011;4369;47.842;13.096;2024-03-22T07:42:39;19.50;;;12.77;;
8663;SDS011;4369;47.842;13.096;2024-03-22T07:45:06;20.60;;;13.17;;
8663;SDS011;4369;47.842;13.096;2024-03-22T07:47:32;16.10;;;13.47;;
8663;SDS011;4369;47.842;13.096;2024-03-22T07:50:01;15.50;;;12.60;;
8663;SDS011;4369;47.842;13.096;2024-03-22T07:52:27;15.00;;;11.60;;
8663;SDS011;4369;47.842;13.096;2024-03-22T07:54:54;17.03;;;11.60;;
8663;SDS011;4369;47.842;13.096;2024-03-22T07:57:20;15.40;;;12.17;;
8663;SDS011;4369;47.842;13.096;2024-03-22T07:59:48;14.17;;;10.53;;
8663;SDS011;4369;47.842;13.096;2024-03-22T08:02:14;14.30;;;11.33;;
8663;SDS011;4369;47.842;13.096;2024-03-22T08:04:41;13.33;;;11.67;;
8663;SDS011;4369;47.842;13.096;2024-03-22T08:07:08;14.63;;;11.17;;
8663;SDS011;4369;47.842;13.096;2024-03-22T08:09:35;12.67;;;10.00;;
8663;SDS011;4369;47.842;13.096;2024-03-22T08:12:01;19.00;;;11.33;;
8663;SDS011;4369;47.842;13.096;2024-03-22T08:14:28;16.70;;;10.53;;
8663;SDS011;4369;47.842;13.096;2024-03-22T08:16:54;12.90;;;9.73;;
8663;SDS011;4369;47.842;13.096;2024-03-22T08:19:21;16.40;;;10.67;;
8663;SDS011;4369;47.842;13.096;2024-03-22T08:21:47;11.83;;;10.37;;
8663;SDS011;4369;47.842;13.096;2024-03-22T08:24:16;11.33;;;9.27;;
8663;SDS011;4369;47.842;13.096;2024-03-22T08:26:43;11.93;;;9.67;;
8663;SDS011;4369;47.842;13.096;2024-03-22T08:29:12;14.63;;;10.03;;
8663;SDS011;4369;47.842;13.096;2024-03-22T08:31:39;13.40;;;10.27;;
8663;SDS011;4369;47.842;13.096;2024-03-22T08:34:07;13.13;;;10.23;;
8663;SDS011;4369;47.842;13.096;2024-03-22T08:36:33;12.13;;;10.07;;
8663;SDS011;4369;47.842;13.096;2024-03-22T08:39:01;13.73;;;10.43;;
8663;SDS011;4369;47.842;13.096;2024-03-22T08:41:29;11.60;;;9.60;;
8663;SDS011;4369;47.842;13.096;2024-03-22T08:43:56;11.83;;;9.30;;
8663;SDS011;4369;47.842;13.096;2024-03-22T08:46:22;11.27;;;8.60;;
8663;SDS011;4369;47.842;13.096;2024-03-22T08:48:51;14.03;;;9.83;;
8663;SDS011;4369;47.842;13.096;2024-03-22T08:51:18;10.67;;;9.07;;
8663;SDS011;4369;47.842;13.096;2024-03-22T08:53:45;12.43;;;9.17;;
8663;SDS011;4369;47.842;13.096;2024-03-22T08:56:11;11.37;;;9.43;;
8663;SDS011;4369;47.842;13.096;2024-03-22T08:58:39;14.30;;;9.37;;
8663;SDS011;4369;47.842;13.096;2024-03-22T09:01:05;11.70;;;9.47;;
8663;SDS011;4369;47.842;13.096;2024-03-22T09:03:35;11.97;;;9.47;;
8663;SDS011;4369;47.842;13.096;2024-03-22T09:06:01;14.97;;;9.80;;
8663;SDS011;4369;47.842;13.096;2024-03-22T09:08:29;12.77;;;9.27;;
8663;SDS011;4369;47.842;13.096;2024-03-22T09:10:56;9.53;;;8.43;;
8663;SDS011;4369;47.842;13.096;2024-03-22T09:13:23;11.97;;;8.57;;
8663;SDS011;4369;47.842;13.096;2024-03-22T09:15:57;10.63;;;8.33;;
8663;SDS011;4369;47.842;13.096;2024-03-22T09:18:25;10.63;;;8.60;;
8663;SDS011;4369;47.842;13.096;2024-03-22T09:20:51;7.57;;;6.83;;
8663;SDS011;4369;47.842;13.096;2024-03-22T09:23:19;8.73;;;7.80;;
8663;SDS011;4369;47.842;13.096;2024-03-22T09:25:45;12.47;;;8.17;;
8663;SDS011;4369;47.842;13.096;2024-03-22T09:28:12;8.20;;;6.97;;
8663;SDS011;4369;47.842;13.096;2024-03-22T09:30:38;11.17;;;8.70;;
8663;SDS011;4369;47.842;13.096;2024-03-22T09:33:07;10.07;;;7.73;;
8663;SDS011;4369;47.842;13.096;2024-03-22T09:35:33;8.00;;;7.20;;
8663;SDS011;4369;47.842;13.096;2024-03-22T09:38:00;9.63;;;7.57;;
8663;SDS011;4369;47.842;13.096;2024-03-22T09:40:27;10.17;;;6.77;;
8663;SDS011;4369;47.842;13.096;2024-03-22T09:42:54;8.07;;;7.03;;
8663;SDS011;4369;47.842;13.096;2024-03-22T09:45:27;8.53;;;6.70;;
8663;SDS011;4369;47.842;13.096;2024-03-22T09:47:56;7.90;;;6.77;;
8663;SDS011;4369;47.842;13.096;2024-03-22T09:50:24;9.13;;;6.33;;
8663;SDS011;4369;47.842;13.096;2024-03-22T09:52:51;7.27;;;5.87;;
8663;SDS011;4369;47.842;13.096;2024-03-22T09:55:18;6.23;;;5.63;;
8663;SDS011;4369;47.842;13.096;2024-03-22T09:57:48;8.10;;;5.80;;
8663;SDS011;4369;47.842;13.096;2024-03-22T10:00:16;7.73;;;6.03;;
8663;SDS011;4369;47.842;13.096;2024-03-22T10:02:45;5.50;;;5.07;;
8663;SDS011;4369;47.842;13.096;2024-03-22T10:05:12;6.20;;;5.60;;
8663;SDS011;4369;47.842;13.096;2024-03-22T10:07:40;6.87;;;5.17;;
8663;SDS011;4369;47.842;13.096;2024-03-22T10:10:06;8.43;;;5.20;;
8663;SDS011;4369;47.842;13.096;2024-03-22T10:12:34;6.30;;;5.33;;
8663;SDS011;4369;47.842;13.096;2024-03-22T10:15:00;5.33;;;4.50;;
8663;SDS011;4369;47.842;13.096;2024-03-22T10:17:27;5.63;;;4.43;;
8663;SDS011;4369;47.842;13.096;2024-03-22T10:19:53;6.60;;;4.47;;
8663;SDS011;4369;47.842;13.096;2024-03-22T10:22:20;4.37;;;3.97;;
8663;SDS011;4369;47.842;13.096;2024-03-22T10:24:48;4.87;;;4.30;;
8663;SDS011;4369;47.842;13.096;2024-03-22T10:27:16;6.93;;;3.93;;
8663;SDS011;4369;47.842;13.096;2024-03-22T10:29:43;5.23;;;4.30;;
8663;SDS011;4369;47.842;13.096;2024-03-22T10:32:10;5.03;;;4.17;;
8663;SDS011;4369;47.842;13.096;2024-03-22T10:34:37;5.50;;;4.43;;
8663;SDS011;4369;47.842;13.096;2024-03-22T10:37:06;5.93;;;4.03;;
8663;SDS011;4369;47.842;13.096;2024-03-22T10:39:35;4.47;;;3.77;;
8663;SDS011;4369;47.842;13.096;2024-03-22T10:42:06;5.37;;;3.87;;
8663;SDS011;4369;47.842;13.096;2024-03-22T10:44:32;5.07;;;4.23;;
8663;SDS011;4369;47.842;13.096;2024-03-22T10:46:59;5.23;;;4.47;;
8663;SDS011;4369;47.842;13.096;2024-03-22T10:49:29;4.97;;;4.03;;
8663;SDS011;4369;47.842;13.096;2024-03-22T10:51:59;5.13;;;3.90;;
8663;SDS011;4369;47.842;13.096;2024-03-22T10:54:28;6.73;;;4.63;;
8663;SDS011;4369;47.842;13.096;2024-03-22T10:56:59;5.03;;;4.53;;
8663;SDS011;4369;47.842;13.096;2024-03-22T10:59:32;6.07;;;4.37;;
8663;SDS011;4369;47.842;13.096;2024-03-22T11:02:02;4.43;;;4.03;;
8663;SDS011;4369;47.842;13.096;2024-03-22T11:04:29;4.50;;;4.10;;
8663;SDS011;4369;47.842;13.096;2024-03-22T11:06:57;5.83;;;4.30;;
8663;SDS011;4369;47.842;13.096;2024-03-22T11:09:23;5.90;;;4.30;;
8663;SDS011;4369;47.842;13.096;2024-03-22T11:11:53;5.73;;;4.73;;
8663;SDS011;4369;47.842;13.096;2024-03-22T11:14:21;5.10;;;4.60;;
8663;SDS011;4369;47.842;13.096;2024-03-22T11:16:51;5.17;;;4.67;;
8663;SDS011;4369;47.842;13.096;2024-03-22T11:19:17;6.90;;;5.23;;
8663;SDS011;4369;47.842;13.096;2024-03-22T11:21:44;5.70;;;5.20;;
8663;SDS011;4369;47.842;13.096;2024-03-22T11:24:10;6.13;;;4.80;;
8663;SDS011;4369;47.842;13.096;2024-03-22T11:26:37;7.17;;;4.80;;
8663;SDS011;4369;47.842;13.096;2024-03-22T11:29:03;6.50;;;5.10;;
8663;SDS011;4369;47.842;13.096;2024-03-22T11:31:30;6.40;;;5.60;;
8663;SDS011;4369;47.842;13.096;2024-03-22T11:33:58;6.43;;;5.30;;
8663;SDS011;4369;47.842;13.096;2024-03-22T11:36:26;6.80;;;5.07;;
8663;SDS011;4369;47.842;13.096;2024-03-22T11:38:52;5.28;;;4.80;;
8663;SDS011;4369;47.842;13.096;2024-03-22T11:41:20;4.73;;;4.40;;
8663;SDS011;4369;47.842;13.096;2024-03-22T11:43:50;4.80;;;4.03;;
8663;SDS011;4369;47.842;13.096;2024-03-22T11:46:25;7.30;;;4.77;;
8663;SDS011;4369;47.842;13.096;2024-03-22T11:48:52;4.20;;;3.90;;
8663;SDS011;4369;47.842;13.096;2024-03-22T11:51:21;5.23;;;4.73;;
8663;SDS011;4369;47.842;13.096;2024-03-22T11:53:50;4.90;;;4.10;;
8663;SDS011;4369;47.842;13.096;2024-03-22T11:56:18;5.57;;;4.13;;
8663;SDS011;4369;47.842;13.096;2024-03-22T11:58:45;3.60;;;3.30;;
8663;SDS011;4369;47.842;13.096;2024-03-22T12:01:13;4.50;;;4.10;;
8663;SDS011;4369;47.842;13.096;2024-03-22T12:03:40;3.87;;;3.57;;
8663;SDS011;4369;47.842;13.096;2024-03-22T12:06:10;4.53;;;3.87;;
8663;SDS011;4369;47.842;13.096;2024-03-22T12:08:37;4.43;;;4.00;;
8663;SDS011;4369;47.842;13.096;2024-03-22T12:11:06;4.00;;;3.70;;
8663;SDS011;4369;47.842;13.096;2024-03-22T12:13:33;3.70;;;3.40;;
8663;SDS011;4369;47.842;13.096;2024-03-22T12:16:00;3.03;;;2.70;;
8663;SDS011;4369;47.842;13.096;2024-03-22T12:18:26;4.13;;;2.67;;
8663;SDS011;4369;47.842;13.096;2024-03-22T12:20:53;2.53;;;2.33;;
8663;SDS011;4369;47.842;13.096;2024-03-22T12:23:19;4.40;;;2.78;;
8663;SDS011;4369;47.842;13.096;2024-03-22T12:25:48;2.70;;;2.47;;
8663;SDS011;4369;47.842;13.096;2024-03-22T12:28:15;3.05;;;2.15;;
8663;SDS011;4369;47.842;13.096;2024-03-22T12:30:42;4.03;;;2.08;;
8663;SDS011;4369;47.842;13.096;2024-03-22T12:33:08;3.70;;;2.47;;
8663;SDS011;4369;47.842;13.096;2024-03-22T12:35:35;2.72;;;2.53;;
8663;SDS011;4369;47.842;13.096;2024-03-22T12:38:01;2.40;;;2.30;;
8663;SDS011;4369;47.842;13.096;2024-03-22T12:40:29;2.83;;;2.30;;
8663;SDS011;4369;47.842;13.096;2024-03-22T12:42:56;2.67;;;2.28;;
8663;SDS011;4369;47.842;13.096;2024-03-22T12:45:23;2.53;;;2.33;;
8663;SDS011;4369;47.842;13.096;2024-03-22T12:47:49;2.38;;;2.17;;
8663;SDS011;4369;47.842;13.096;2024-03-22T12:50:16;5.25;;;2.67;;
8663;SDS011;4369;47.842;13.096;2024-03-22T12:52:42;3.58;;;2.20;;
8663;SDS011;4369;47.842;13.096;2024-03-22T12:55:09;2.38;;;2.10;;
8663;SDS011;4369;47.842;13.096;2024-03-22T12:57:36;2.53;;;2.33;;
8663;SDS011;4369;47.842;13.096;2024-03-22T13:00:05;3.40;;;2.13;;
8663;SDS011;4369;47.842;13.096;2024-03-22T13:02:37;3.88;;;2.22;;
8663;SDS011;4369;47.842;13.096;2024-03-22T13:05:05;3.05;;;2.10;;
8663;SDS011;4369;47.842;13.096;2024-03-22T13:07:32;3.63;;;2.20;;
8663;SDS011;4369;47.842;13.096;2024-03-22T13:09:59;2.47;;;2.28;;
8663;SDS011;4369;47.842;13.096;2024-03-22T13:12:25;2.95;;;2.20;;
8663;SDS011;4369;47.842;13.096;2024-03-22T13:14:53;1.95;;;1.75;;
8663;SDS011;4369;47.842;13.096;2024-03-22T13:17:21;2.85;;;2.33;;
8663;SDS011;4369;47.842;13.096;2024-03-22T13:19:48;2.30;;;2.10;;
8663;SDS011;4369;47.842;13.096;2024-03-22T13:22:15;3.22;;;2.40;;
8663;SDS011;4369;47.842;13.096;2024-03-22T13:24:43;2.25;;;2.03;;
8663;SDS011;4369;47.842;13.096;2024-03-22T13:27:10;2.67;;;1.90;;
8663;SDS011;4369;47.842;13.096;2024-03-22T13:29:37;3.35;;;2.13;;
8663;SDS011;4369;47.842;13.096;2024-03-22T13:32:03;3.08;;;2.20;;
8663;SDS011;4369;47.842;13.096;2024-03-22T13:34:33;2.40;;;2.13;;
8663;SDS011;4369;47.842;13.096;2024-03-22T13:36:59;3.40;;;2.05;;
8663;SDS011;4369;47.842;13.096;2024-03-22T13:39:26;36.28;;;17.85;;
8663;SDS011;4369;47.842;13.096;2024-03-22T13:41:54;20.15;;;9.75;;
8663;SDS011;4369;47.842;13.096;2024-03-22T13:44:21;3.35;;;2.33;;
8663;SDS011;4369;47.842;13.096;2024-03-22T13:46:48;2.42;;;2.20;;
8663;SDS011;4369;47.842;13.096;2024-03-22T13:49:16;2.20;;;2.00;;
8663;SDS011;4369;47.842;13.096;2024-03-22T13:51:44;2.20;;;2.03;;
8663;SDS011;4369;47.842;13.096;2024-03-22T13:54:11;2.25;;;2.03;;
8663;SDS011;4369;47.842;13.096;2024-03-22T13:56:38;2.25;;;2.10;;
8663;SDS011;4369;47.842;13.096;2024-03-22T13:59:05;2.10;;;1.90;;
8663;SDS011;4369;47.842;13.096;2024-03-22T14:01:31;9.27;;;6.22;;
8663;SDS011;4369;47.842;13.096;2024-03-22T14:03:58;3.95;;;2.92;;
8663;SDS011;4369;47.842;13.096;2024-03-22T14:06:24;2.22;;;2.03;;
8663;SDS011;4369;47.842;13.096;2024-03-22T14:08:53;3.15;;;1.73;;
8663;SDS011;4369;47.842;13.096;2024-03-22T14:11:25;2.50;;;2.13;;
8663;SDS011;4369;47.842;13.096;2024-03-22T14:13:52;2.47;;;2.28;;
8663;SDS011;4369;47.842;13.096;2024-03-22T14:16:18;2.00;;;1.90;;
8663;SDS011;4369;47.842;13.096;2024-03-22T14:18:45;1.80;;;1.70;;
8663;SDS011;4369;47.842;13.096;2024-03-22T14:21:11;3.42;;;2.13;;
8663;SDS011;4369;47.842;13.096;2024-03-22T14:23:42;2.20;;;2.00;;
8663;SDS011;4369;47.842;13.096;2024-03-22T14:26:09;2.60;;;2.40;;
8663;SDS011;4369;47.842;13.096;2024-03-22T14:28:36;2.67;;;2.47;;
8663;SDS011;4369;47.842;13.096;2024-03-22T14:31:07;2.40;;;2.25;;
8663;SDS011;4369;47.842;13.096;2024-03-22T14:33:35;4.00;;;2.20;;
8663;SDS011;4369;47.842;13.096;2024-03-22T14:36:02;2.75;;;2.10;;
8663;SDS011;4369;47.842;13.096;2024-03-22T14:38:29;2.78;;;2.13;;
8663;SDS011;4369;47.842;13.096;2024-03-22T14:40:56;2.42;;;2.22;;
8663;SDS011;4369;47.842;13.096;2024-03-22T14:43:25;3.05;;;2.70;;
8663;SDS011;4369;47.842;13.096;2024-03-22T14:45:52;2.20;;;2.03;;